createdAt,value
2022-07-25T00:01:50.395Z,23.54
2022-07-25T00:04:18.823Z,23.38
2022-07-25T00:06:46.908Z,23.26
2022-07-25T00:09:14.979Z,23.26
2022-07-25T00:11:42.754Z,23.19
2022-07-25T00:14:10.333Z,23.03
2022-07-25T00:16:38.033Z,22.95
2022-07-25T00:19:05.075Z,22.99
2022-07-25T00:21:32.943Z,22.96
2022-07-25T00:24:00.546Z,22.85
2022-07-25T00:26:27.547Z,22.83
2022-07-25T00:28:55.151Z,22.66
2022-07-25T00:31:22.051Z,22.57
2022-07-25T00:33:49.113Z,22.38
2022-07-25T00:36:16.192Z,22.39
2022-07-25T00:38:43.575Z,22.38
2022-07-25T00:41:10.647Z,22.43
2022-07-25T00:43:37.692Z,22.41
2022-07-25T00:46:04.935Z,22.41
2022-07-25T00:48:32.477Z,22.50
2022-07-25T00:51:00.541Z,22.33
2022-07-25T00:53:27.518Z,22.21
2022-07-25T00:55:55.715Z,22.13
2022-07-25T00:58:22.986Z,22.09
2022-07-25T01:00:53.076Z,22.08
2022-07-25T01:03:20.383Z,22.07
2022-07-25T01:05:53.181Z,22.06
2022-07-25T01:08:21.952Z,22.06
2022-07-25T01:10:49.689Z,22.10
2022-07-25T01:13:16.812Z,22.04
2022-07-25T01:15:44.214Z,22.01
2022-07-25T01:18:11.466Z,21.80
2022-07-25T01:20:40.512Z,21.79
2022-07-25T01:23:07.646Z,21.79
2022-07-25T01:25:37.568Z,21.81
2022-07-25T01:28:14.396Z,21.84
2022-07-25T01:30:41.693Z,21.77
2022-07-25T01:33:08.987Z,21.74
2022-07-25T01:35:40.195Z,21.69
2022-07-25T01:38:10.215Z,21.64
2022-07-25T01:40:37.529Z,21.58
2022-07-25T01:43:05.444Z,21.63
2022-07-25T01:45:32.575Z,21.64
2022-07-25T01:48:03.160Z,21.57
2022-07-25T01:50:30.216Z,21.61
2022-07-25T01:52:57.377Z,21.60
2022-07-25T01:55:24.966Z,21.56
2022-07-25T01:57:53.540Z,21.61
2022-07-25T02:00:20.707Z,21.64
2022-07-25T02:02:47.910Z,21.65
2022-07-25T02:05:16.623Z,21.66
2022-07-25T02:07:43.883Z,21.67
2022-07-25T02:10:11.035Z,21.66
2022-07-25T02:12:38.464Z,21.61
2022-07-25T02:15:06.105Z,21.60
2022-07-25T02:17:33.011Z,21.48
2022-07-25T02:20:00.258Z,21.37
2022-07-25T02:22:27.390Z,21.33
2022-07-25T02:24:54.619Z,21.30
2022-07-25T02:27:22.111Z,21.28
2022-07-25T02:29:49.162Z,21.20
2022-07-25T02:32:16.596Z,21.11
2022-07-25T02:34:43.634Z,21.12
2022-07-25T02:37:10.751Z,21.14
2022-07-25T02:39:37.855Z,21.18
2022-07-25T02:42:05.039Z,21.23
2022-07-25T02:44:32.567Z,21.14
2022-07-25T02:46:59.865Z,21.12
2022-07-25T02:49:26.837Z,21.10
2022-07-25T02:51:53.982Z,21.12
2022-07-25T02:54:21.267Z,21.11
2022-07-25T02:56:48.266Z,20.97
2022-07-25T02:59:15.411Z,20.91
2022-07-25T03:01:42.476Z,20.94
2022-07-25T03:04:10.214Z,20.97
2022-07-25T03:06:37.998Z,20.95
2022-07-25T03:10:00.977Z,20.87
2022-07-25T03:12:28.734Z,20.82
2022-07-25T03:14:59.845Z,20.75
2022-07-25T03:17:32.632Z,20.73
2022-07-25T03:20:01.150Z,20.79
2022-07-25T03:22:34.182Z,20.75
2022-07-25T03:25:15.709Z,20.72
2022-07-25T03:27:52.476Z,20.71
2022-07-25T03:30:21.309Z,20.70
2022-07-25T03:32:53.027Z,20.74
2022-07-25T03:35:36.897Z,20.74
2022-07-25T03:38:09.990Z,20.79
2022-07-25T03:40:38.624Z,20.78
2022-07-25T03:43:19.970Z,20.80
2022-07-25T03:46:03.339Z,20.80
2022-07-25T03:48:31.364Z,20.79
2022-07-25T03:51:06.867Z,20.86
2022-07-25T03:54:00.170Z,20.99
2022-07-25T03:56:30.701Z,21.05
2022-07-25T03:59:06.377Z,21.07
2022-07-25T04:01:39.626Z,21.02
2022-07-25T04:04:16.463Z,21.01
2022-07-25T04:06:45.362Z,21.01
2022-07-25T04:09:22.127Z,21.05
2022-07-25T04:11:51.414Z,21.09
2022-07-25T04:14:22.336Z,21.11
2022-07-25T04:16:53.610Z,21.20
2022-07-25T04:19:28.865Z,21.25
2022-07-25T04:22:02.333Z,21.34
2022-07-25T04:27:41.291Z,21.48
2022-07-25T04:30:11.261Z,21.48
2022-07-25T04:32:41.580Z,21.48
2022-07-25T04:35:37.324Z,21.46
2022-07-25T04:38:11.931Z,21.47
2022-07-25T04:40:50.941Z,21.55
2022-07-25T04:43:27.404Z,21.60
2022-07-25T04:45:55.012Z,21.63
2022-07-25T04:48:22.011Z,21.71
2022-07-25T04:50:49.204Z,21.81
2022-07-25T04:53:16.268Z,21.98
2022-07-25T04:55:43.487Z,22.09
2022-07-25T04:58:10.879Z,22.11
2022-07-25T05:00:41.123Z,22.27
2022-07-25T05:03:08.161Z,22.44
2022-07-25T05:05:35.372Z,22.63
2022-07-25T05:08:02.548Z,22.84
2022-07-25T05:10:30.782Z,23.06
2022-07-25T05:12:57.918Z,23.18
2022-07-25T05:15:25.148Z,23.21
2022-07-25T05:17:52.661Z,23.21
2022-07-25T05:20:19.708Z,23.22
2022-07-25T05:22:47.356Z,23.25
2022-07-25T05:25:14.488Z,23.34
2022-07-25T05:27:41.924Z,23.35
2022-07-25T05:30:10.336Z,23.41
2022-07-25T05:32:39.052Z,23.47
2022-07-25T05:35:49.699Z,23.63
2022-07-25T05:38:25.264Z,23.70
2022-07-25T05:40:55.217Z,23.74
2022-07-25T05:47:13.529Z,23.90
2022-07-25T05:49:43.119Z,23.99
2022-07-25T05:52:15.292Z,24.18
2022-07-25T05:54:55.156Z,24.35
2022-07-25T05:57:25.531Z,24.55
2022-07-25T05:59:53.671Z,24.84
2022-07-25T06:02:21.264Z,24.98
2022-07-25T06:05:07.422Z,24.94
2022-07-25T06:07:35.912Z,24.90
2022-07-25T06:13:03.499Z,24.96
2022-07-25T06:15:34.934Z,24.88
2022-07-25T06:18:22.727Z,24.95
2022-07-25T06:29:10.710Z,25.06
2022-07-25T06:31:39.596Z,25.06
2022-07-25T06:34:40.990Z,24.88
2022-07-25T06:38:39.074Z,24.82
2022-07-25T06:40:11.307Z,24.84
2022-07-25T06:43:08.359Z,25.06
2022-07-25T06:45:50.325Z,25.14
2022-07-25T06:48:52.435Z,25.20
2022-07-25T06:51:19.520Z,25.22
2022-07-25T06:54:15.571Z,25.54
2022-07-25T06:56:48.804Z,25.91
2022-07-25T06:59:16.208Z,26.22
2022-07-25T07:01:46.999Z,26.36
2022-07-25T07:04:24.825Z,26.31
2022-07-25T07:07:09.994Z,26.35
2022-07-25T07:09:40.452Z,26.51
2022-07-25T07:12:12.022Z,26.61
2022-07-25T07:14:55.791Z,26.85
2022-07-25T07:17:24.908Z,27.38
2022-07-25T07:23:36.751Z,28.10
2022-07-25T07:29:05.561Z,28.56
2022-07-25T07:34:53.006Z,28.26
2022-07-25T07:37:31.631Z,28.00
2022-07-25T07:40:17.898Z,27.60
2022-07-25T07:42:49.486Z,27.33
2022-07-25T07:45:27.858Z,27.25
2022-07-25T07:48:00.402Z,27.30
2022-07-25T07:50:35.136Z,27.56
2022-07-25T07:53:49.642Z,27.78
2022-07-25T07:59:40.186Z,28.26
2022-07-25T08:02:17.818Z,28.21
2022-07-25T08:04:52.384Z,28.56
2022-07-25T08:07:19.565Z,28.98
2022-07-25T08:09:47.172Z,29.35
2022-07-25T08:12:36.107Z,29.33
2022-07-25T08:15:17.767Z,28.97
2022-07-25T08:18:01.094Z,28.88
2022-07-25T08:20:54.948Z,29.09
2022-07-25T08:23:59.987Z,29.12
2022-07-25T08:31:12.491Z,28.93
2022-07-25T08:34:20.874Z,28.98
2022-07-25T08:37:31.374Z,29.38
2022-07-25T08:40:52.639Z,29.94
2022-07-25T08:46:32.444Z,30.96
2022-07-25T08:49:04.071Z,31.16
2022-07-25T08:51:53.338Z,31.40
2022-07-25T08:55:04.163Z,31.56
2022-07-25T08:57:38.467Z,31.78
2022-07-25T09:00:20.856Z,31.53
2022-07-25T09:03:07.232Z,31.45
2022-07-25T09:05:37.268Z,31.55
2022-07-25T09:08:25.185Z,31.60
2022-07-25T09:10:55.124Z,31.28
2022-07-25T09:20:22.513Z,31.54
2022-07-25T09:24:58.649Z,31.81
2022-07-25T09:29:14.565Z,32.52
2022-07-25T09:31:43.771Z,32.55
2022-07-25T09:34:29.559Z,32.40
2022-07-25T09:37:09.184Z,32.14
2022-07-25T09:39:49.289Z,32.20
2022-07-25T09:42:30.454Z,32.11
2022-07-25T09:45:23.855Z,32.50
2022-07-25T09:48:17.064Z,32.73
2022-07-25T09:50:47.766Z,32.87
2022-07-25T09:53:18.929Z,32.98
2022-07-25T09:55:50.641Z,32.77
2022-07-25T09:58:31.026Z,32.64
2022-07-25T10:03:24.229Z,32.40
2022-07-25T10:09:09.307Z,31.88
2022-07-25T10:15:03.384Z,32.26
2022-07-25T10:18:16.691Z,32.41
2022-07-25T10:24:19.559Z,33.49
2022-07-25T10:27:20.010Z,33.65
2022-07-25T10:36:29.327Z,33.46
2022-07-25T10:40:47.985Z,33.06
2022-07-25T10:46:15.847Z,32.63
2022-07-25T10:49:16.592Z,32.17
2022-07-25T10:51:56.124Z,31.92
2022-07-25T11:01:15.095Z,31.66
2022-07-25T11:03:59.939Z,31.67
2022-07-25T11:13:33.451Z,31.45
2022-07-25T11:19:10.359Z,31.78
2022-07-25T11:22:19.450Z,32.13
2022-07-25T11:24:48.672Z,32.26
2022-07-25T11:27:20.846Z,31.87
2022-07-25T11:29:48.367Z,32.02
2022-07-25T11:32:34.325Z,32.19
2022-07-25T11:35:24.256Z,32.34
2022-07-25T11:37:58.822Z,32.27
2022-07-25T11:40:43.027Z,32.33
2022-07-25T11:43:30.482Z,32.79
2022-07-25T11:46:17.817Z,33.14
2022-07-25T11:48:45.338Z,33.41
2022-07-25T11:51:22.126Z,33.67
2022-07-25T11:53:51.855Z,33.78
2022-07-25T11:56:42.877Z,33.82
2022-07-25T11:59:18.865Z,33.67
2022-07-25T12:01:58.175Z,33.90
2022-07-25T12:04:35.520Z,34.15
2022-07-25T12:07:06.458Z,34.45
2022-07-25T12:09:34.019Z,34.52
2022-07-25T12:12:25.499Z,34.60
2022-07-25T12:14:59.005Z,34.23
2022-07-25T12:17:35.975Z,33.95
2022-07-25T12:20:10.847Z,33.70
2022-07-25T12:22:54.993Z,33.60
2022-07-25T12:25:36.645Z,33.35
2022-07-25T12:28:04.785Z,32.78
2022-07-25T12:30:32.625Z,32.15
2022-07-25T12:33:00.925Z,31.77
2022-07-25T12:35:31.256Z,31.42
2022-07-25T12:37:58.613Z,31.32
2022-07-25T12:40:26.506Z,31.54
2022-07-25T12:42:59.695Z,32.03
2022-07-25T12:45:30.549Z,32.56
2022-07-25T12:47:58.415Z,32.84
2022-07-25T12:50:26.217Z,33.04
2022-07-25T12:52:53.930Z,33.15
2022-07-25T12:55:23.876Z,33.27
2022-07-25T12:57:54.186Z,33.53
2022-07-25T13:00:39.882Z,33.12
2022-07-25T13:03:07.633Z,32.75
2022-07-25T13:05:59.297Z,32.44
2022-07-25T13:08:26.991Z,32.36
2022-07-25T13:11:20.687Z,32.24
2022-07-25T13:13:53.890Z,32.17
2022-07-25T13:16:33.315Z,32.47
2022-07-25T13:19:00.594Z,32.41
2022-07-25T13:21:27.744Z,32.50
2022-07-25T13:23:54.546Z,32.63
2022-07-25T13:26:21.786Z,32.59
2022-07-25T13:28:49.457Z,32.49
2022-07-25T13:31:23.527Z,32.30
2022-07-25T13:33:53.857Z,32.30
2022-07-25T13:36:24.489Z,32.54
2022-07-25T13:38:51.983Z,32.59
2022-07-25T13:41:19.397Z,32.67
2022-07-25T13:43:48.311Z,32.99
2022-07-25T13:46:15.647Z,33.19
2022-07-25T13:48:43.282Z,33.03
2022-07-25T13:51:13.522Z,32.84
2022-07-25T13:53:40.695Z,32.48
2022-07-25T13:56:07.915Z,32.37
2022-07-25T13:58:35.298Z,32.30
2022-07-25T14:01:02.800Z,32.02
2022-07-25T14:03:30.554Z,31.67
2022-07-25T14:06:00.972Z,31.49
2022-07-25T14:08:28.333Z,31.46
2022-07-25T14:10:55.795Z,31.38
2022-07-25T14:13:23.159Z,31.44
2022-07-25T14:15:50.274Z,31.69
2022-07-25T14:18:17.659Z,31.88
2022-07-25T14:20:48.547Z,31.89
2022-07-25T14:23:15.848Z,31.78
2022-07-25T14:25:43.361Z,31.71
2022-07-25T14:28:21.225Z,31.57
2022-07-25T14:30:49.233Z,31.51
2022-07-25T14:33:25.930Z,31.55
2022-07-25T14:35:53.737Z,31.46
2022-07-25T14:38:20.988Z,31.58
2022-07-25T14:40:48.922Z,31.86
2022-07-25T14:43:18.928Z,32.11
2022-07-25T14:45:46.478Z,31.82
2022-07-25T14:48:23.061Z,31.55
2022-07-25T14:50:50.428Z,31.76
2022-07-25T14:53:20.518Z,31.98
2022-07-25T14:55:48.273Z,32.09
2022-07-25T14:58:21.132Z,32.08
2022-07-25T15:00:57.790Z,31.88
2022-07-25T15:03:25.120Z,31.66
2022-07-25T15:05:52.417Z,31.32
2022-07-25T15:08:20.169Z,30.99
2022-07-25T15:10:47.724Z,30.78
2022-07-25T15:13:30.515Z,30.67
2022-07-25T15:15:58.967Z,30.58
2022-07-25T15:18:29.293Z,30.42
2022-07-25T15:21:07.593Z,30.31
2022-07-25T15:23:37.494Z,30.22
2022-07-25T15:26:08.742Z,30.00
2022-07-25T15:28:38.703Z,29.98
2022-07-25T15:31:12.128Z,30.11
2022-07-25T15:33:39.902Z,30.15
2022-07-25T15:36:17.841Z,30.38
2022-07-25T15:38:47.742Z,30.50
2022-07-25T15:41:18.151Z,30.56
2022-07-25T15:43:48.327Z,30.57
2022-07-25T15:46:18.478Z,30.44
2022-07-25T15:48:46.059Z,30.27
2022-07-25T15:51:18.894Z,30.14
2022-07-25T15:53:48.682Z,30.08
2022-07-25T15:56:17.255Z,30.06
2022-07-25T15:58:44.998Z,30.03
2022-07-25T16:01:12.795Z,30.02
2022-07-25T16:03:40.322Z,30.10
2022-07-25T16:06:13.270Z,30.10
2022-07-25T16:08:46.716Z,29.99
2022-07-25T16:11:17.878Z,29.89
2022-07-25T16:13:45.627Z,29.67
2022-07-25T16:16:13.042Z,29.52
2022-07-25T16:18:40.372Z,29.49
2022-07-25T16:21:07.714Z,29.40
2022-07-25T16:23:44.892Z,29.30
2022-07-25T16:26:12.730Z,29.13
2022-07-25T16:28:41.873Z,28.99
2022-07-25T16:31:19.609Z,28.89
2022-07-25T16:33:47.037Z,28.75
2022-07-25T16:36:14.260Z,28.65
2022-07-25T16:38:41.665Z,28.54
2022-07-25T16:41:10.066Z,28.50
2022-07-25T16:43:37.559Z,28.53
2022-07-25T16:46:04.885Z,28.48
2022-07-25T16:48:32.230Z,28.35
2022-07-25T16:50:59.706Z,28.30
2022-07-25T16:53:29.024Z,28.25
2022-07-25T16:55:56.315Z,28.16
2022-07-25T16:58:23.419Z,28.11
2022-07-25T17:00:50.262Z,28.06
2022-07-25T17:03:17.292Z,27.99
2022-07-25T17:05:44.480Z,27.89
2022-07-25T17:08:15.191Z,27.89
2022-07-25T17:10:42.621Z,27.78
2022-07-25T17:13:09.756Z,27.67
2022-07-25T17:15:37.424Z,27.61
2022-07-25T17:18:05.008Z,27.51
2022-07-25T17:20:32.567Z,27.38
2022-07-25T17:23:00.526Z,27.28
2022-07-25T17:25:34.137Z,27.19
2022-07-25T17:28:04.747Z,27.06
2022-07-25T17:30:35.650Z,26.97
2022-07-25T17:33:07.578Z,26.86
2022-07-25T17:35:49.365Z,26.82
2022-07-25T17:38:18.412Z,26.73
2022-07-25T17:40:47.805Z,26.68
2022-07-25T17:43:28.188Z,26.58
2022-07-25T17:46:02.579Z,26.45
2022-07-25T17:48:53.230Z,26.32
2022-07-25T17:51:20.287Z,26.20
2022-07-25T17:53:47.395Z,26.08
2022-07-25T17:56:14.765Z,26.00
2022-07-25T17:58:41.991Z,25.91
2022-07-25T18:01:10.634Z,25.76
2022-07-25T18:03:38.679Z,25.62
2022-07-25T18:06:06.667Z,25.55
2022-07-25T18:08:35.669Z,25.47
2022-07-25T18:11:03.820Z,25.40
2022-07-25T18:13:31.018Z,25.29
2022-07-25T18:16:10.420Z,25.17
2022-07-25T18:18:40.569Z,25.12
2022-07-25T18:21:07.654Z,25.00
2022-07-25T18:23:34.830Z,24.87
2022-07-25T18:26:01.950Z,24.78
2022-07-25T18:28:29.315Z,24.67
2022-07-25T18:31:10.444Z,24.55
2022-07-25T18:33:40.705Z,24.47
2022-07-25T18:36:13.509Z,24.40
2022-07-25T18:38:54.579Z,24.36
2022-07-25T18:41:29.635Z,24.22
2022-07-25T18:43:58.338Z,24.14
2022-07-25T18:46:25.996Z,24.11
2022-07-25T18:48:53.765Z,24.06
2022-07-25T18:51:21.559Z,24.03
2022-07-25T18:53:49.052Z,23.94
2022-07-25T18:56:16.206Z,23.93
2022-07-25T18:58:44.099Z,23.78
2022-07-25T19:01:11.512Z,23.75
2022-07-25T19:03:41.024Z,23.62
2022-07-25T19:06:09.906Z,23.58
2022-07-25T19:08:40.305Z,23.53
2022-07-25T19:11:18.813Z,23.39
2022-07-25T19:14:19.200Z,23.33
2022-07-25T19:16:39.962Z,23.16
2022-07-25T19:19:07.823Z,23.02
2022-07-25T19:21:36.517Z,22.92
2022-07-25T19:24:04.446Z,22.90
2022-07-25T19:26:42.083Z,22.86
2022-07-25T19:29:09.730Z,22.86
2022-07-25T19:31:47.809Z,22.86
2022-07-25T19:34:15.162Z,22.78
2022-07-25T19:36:46.257Z,22.69
2022-07-25T19:39:14.240Z,22.62
2022-07-25T19:41:46.453Z,22.57
2022-07-25T19:44:23.191Z,22.47
2022-07-25T19:46:50.873Z,22.45
2022-07-25T19:49:18.974Z,22.45
2022-07-25T19:51:46.676Z,22.40
2022-07-25T19:54:18.592Z,22.41
2022-07-25T19:56:48.105Z,22.34
2022-07-25T19:59:16.386Z,22.32
2022-07-25T20:01:44.153Z,22.32
2022-07-25T20:04:14.803Z,22.31
2022-07-25T20:06:42.770Z,22.24
2022-07-25T20:09:10.626Z,22.14
2022-07-25T20:11:40.342Z,22.09
2022-07-25T20:14:08.342Z,22.01
2022-07-25T20:16:37.508Z,22.06
2022-07-25T20:19:12.437Z,21.98
2022-07-25T20:21:44.190Z,21.94
2022-07-25T20:24:21.294Z,21.80
2022-07-25T20:26:49.232Z,21.71
2022-07-25T20:29:17.474Z,21.72
2022-07-25T20:31:46.362Z,21.63
2022-07-25T20:34:14.490Z,21.52
2022-07-25T20:39:10.653Z,21.47
2022-07-25T20:41:40.496Z,21.34
2022-07-25T20:44:09.172Z,21.25
2022-07-25T20:46:37.947Z,21.19
2022-07-25T20:49:12.884Z,21.24
2022-07-25T20:51:41.894Z,21.23
2022-07-25T20:54:13.583Z,21.16
2022-07-25T20:56:40.992Z,21.10
2022-07-25T20:59:13.787Z,21.08
2022-07-25T21:01:47.382Z,21.09
2022-07-25T21:04:18.236Z,21.14
2022-07-25T21:06:46.513Z,21.08
2022-07-25T21:09:17.845Z,21.01
2022-07-25T21:11:46.207Z,20.80
2022-07-25T21:14:14.458Z,20.69
2022-07-25T21:16:45.201Z,20.70
2022-07-25T21:19:13.217Z,20.74
2022-07-25T21:21:44.237Z,20.70
2022-07-25T21:24:13.230Z,20.62
2022-07-25T21:26:41.263Z,20.51
2022-07-25T21:29:13.915Z,20.53
2022-07-25T21:31:42.688Z,20.55
2022-07-25T21:34:11.182Z,20.52
2022-07-25T21:36:39.074Z,20.48
2022-07-25T21:39:06.487Z,20.47
2022-07-25T21:41:37.859Z,20.56
2022-07-25T21:44:06.123Z,20.43
2022-07-25T21:46:34.586Z,20.39
2022-07-25T21:49:25.491Z,20.35
2022-07-25T21:52:08.949Z,20.27
2022-07-25T21:54:44.511Z,20.29
2022-07-25T21:57:13.464Z,20.22
2022-07-25T21:59:45.893Z,20.20
2022-07-25T22:02:16.765Z,20.19
2022-07-25T22:04:44.414Z,20.14
2022-07-25T22:07:11.691Z,20.13
2022-07-25T22:09:40.042Z,20.11
2022-07-25T22:12:09.721Z,20.13
2022-07-25T22:14:40.569Z,20.12
2022-07-25T22:17:12.477Z,20.03
2022-07-25T22:19:40.625Z,19.97
2022-07-25T22:22:08.289Z,19.95
2022-07-25T22:24:41.914Z,19.92
2022-07-25T22:27:15.297Z,19.83
2022-07-25T22:29:43.213Z,19.86
2022-07-25T22:32:11.563Z,19.75
2022-07-25T22:34:39.011Z,19.75
2022-07-25T22:37:10.601Z,19.72
2022-07-25T22:39:40.618Z,19.76
2022-07-25T22:42:11.139Z,19.75
2022-07-25T22:44:47.631Z,19.72
2022-07-25T22:47:16.478Z,19.58
2022-07-25T22:49:45.024Z,19.60
2022-07-25T22:52:12.876Z,19.58
2022-07-25T22:54:41.235Z,19.57
2022-07-25T22:57:18.411Z,19.57
2022-07-25T22:59:49.880Z,19.44
2022-07-25T23:02:20.267Z,19.43
2022-07-25T23:04:53.357Z,19.42
2022-07-25T23:07:21.688Z,19.44
2022-07-25T23:09:52.768Z,19.42
2022-07-25T23:12:21.278Z,19.40
2022-07-25T23:14:49.529Z,19.20
2022-07-25T23:17:26.090Z,19.21
2022-07-25T23:19:56.245Z,19.18
2022-07-25T23:22:27.320Z,19.16
2022-07-25T23:24:57.040Z,19.19
2022-07-25T23:27:29.466Z,19.25
2022-07-25T23:30:09.971Z,19.25
2022-07-25T23:32:38.149Z,19.17
2022-07-25T23:35:10.125Z,19.16
2022-07-25T23:37:38.432Z,19.20
2022-07-25T23:40:11.306Z,19.19
2022-07-25T23:42:43.562Z,19.08
2022-07-25T23:45:12.623Z,19.04
2022-07-25T23:47:41.358Z,19.01
2022-07-25T23:50:13.521Z,19.11
2022-07-25T23:52:42.511Z,19.07
2022-07-25T23:55:11.092Z,19.03
2022-07-25T23:57:40.470Z,18.98
